createdAt,value
2018-09-06T00:00:15.307Z,23.0
2018-09-06T00:03:15.886Z,23.0
2018-09-06T00:06:15.313Z,23.0
2018-09-06T00:09:15.720Z,22.9
2018-09-06T00:12:15.203Z,22.9
2018-09-06T00:15:15.602Z,22.9
2018-09-06T00:18:14.998Z,22.8
2018-09-06T00:21:15.619Z,22.8
2018-09-06T00:24:15.057Z,22.8
2018-09-06T00:27:15.543Z,22.7
2018-09-06T00:30:15.923Z,22.7
2018-09-06T00:33:15.489Z,22.7
2018-09-06T00:36:15.887Z,22.6
2018-09-06T00:39:15.356Z,22.6
2018-09-06T00:42:15.725Z,22.6
2018-09-06T00:45:15.238Z,22.6
2018-09-06T00:48:15.804Z,22.6
2018-09-06T00:51:15.235Z,22.6
2018-09-06T00:54:15.836Z,22.6
2018-09-06T00:57:15.250Z,22.6
2018-09-06T01:00:15.083Z,22.5
2018-09-06T01:03:15.682Z,22.5
2018-09-06T01:06:15.360Z,22.5
2018-09-06T01:09:15.861Z,22.5
2018-09-06T01:12:15.438Z,22.6
2018-09-06T01:15:15.872Z,22.6
2018-09-06T01:18:15.485Z,22.6
2018-09-06T01:21:15.894Z,22.6
2018-09-06T01:24:15.417Z,22.6
2018-09-06T01:27:15.896Z,22.6
2018-09-06T01:30:15.376Z,22.5
2018-09-06T01:33:15.801Z,22.5
2018-09-06T01:36:15.188Z,22.5
2018-09-06T01:39:15.100Z,22.4
2018-09-06T01:42:15.669Z,22.4
2018-09-06T01:45:15.159Z,22.4
2018-09-06T01:48:15.648Z,22.3
2018-09-06T01:51:15.057Z,22.3
2018-09-06T01:54:15.615Z,22.2
2018-09-06T01:57:14.918Z,22.2
2018-09-06T02:00:15.368Z,22.2
2018-09-06T02:03:15.841Z,22.2
2018-09-06T02:06:15.534Z,22.2
2018-09-06T02:09:15.263Z,22.2
2018-09-06T02:12:15.868Z,22.1
2018-09-06T02:15:15.325Z,22.1
2018-09-06T02:18:15.995Z,22.1
2018-09-06T02:21:15.336Z,22.2
2018-09-06T02:24:15.796Z,22.2
2018-09-06T02:27:15.407Z,22.2
2018-09-06T02:30:16.038Z,22.2
2018-09-06T02:33:15.499Z,22.2
2018-09-06T02:36:15.924Z,22.2
2018-09-06T02:39:15.406Z,22.1
2018-09-06T02:42:15.931Z,22.2
2018-09-06T02:45:15.312Z,22.1
2018-09-06T02:48:15.684Z,22.1
2018-09-06T02:51:15.580Z,22.1
2018-09-06T02:54:15.109Z,22.1
2018-09-06T02:57:15.644Z,22.1
2018-09-06T03:00:15.180Z,22.1
2018-09-06T03:03:15.638Z,22.0
2018-09-06T03:06:15.100Z,22.0
2018-09-06T03:09:15.364Z,22.0
2018-09-06T03:12:15.046Z,21.9
2018-09-06T03:15:15.841Z,21.9
2018-09-06T03:18:15.624Z,21.8
2018-09-06T03:21:15.246Z,21.8
2018-09-06T03:24:15.708Z,21.8
2018-09-06T03:27:15.371Z,21.8
2018-09-06T03:30:14.988Z,21.7
2018-09-06T03:33:15.410Z,21.7
2018-09-06T03:36:15.866Z,21.7
2018-09-06T03:39:15.228Z,21.7
2018-09-06T03:42:15.894Z,21.6
2018-09-06T03:45:15.375Z,21.6
2018-09-06T03:48:15.988Z,21.5
2018-09-06T03:51:15.701Z,21.5
2018-09-06T03:54:15.391Z,21.5
2018-09-06T03:57:14.946Z,21.5
2018-09-06T04:00:15.614Z,21.5
2018-09-06T04:03:15.020Z,21.5
2018-09-06T04:06:15.558Z,21.4
2018-09-06T04:09:15.100Z,21.5
2018-09-06T04:12:15.850Z,21.5
2018-09-06T04:15:15.289Z,21.5
2018-09-06T04:18:15.906Z,21.5
2018-09-06T04:21:15.487Z,21.4
2018-09-06T04:24:15.991Z,21.5
2018-09-06T04:27:15.675Z,21.3
2018-09-06T04:30:15.288Z,21.5
2018-09-06T04:33:15.782Z,21.5
2018-09-06T04:36:15.465Z,21.5
2018-09-06T04:39:15.510Z,21.5
2018-09-06T04:42:15.082Z,21.6
2018-09-06T04:45:15.669Z,21.7
2018-09-06T04:48:15.249Z,21.7
2018-09-06T04:51:15.977Z,21.8
2018-09-06T04:54:15.529Z,21.6
2018-09-06T04:57:15.016Z,21.5
2018-09-06T05:00:16.060Z,21.5
2018-09-06T05:03:15.513Z,21.6
2018-09-06T05:06:15.073Z,21.6
2018-09-06T05:09:15.452Z,21.7
2018-09-06T05:12:15.076Z,21.8
2018-09-06T05:15:15.670Z,21.9
2018-09-06T05:18:15.342Z,22.1
2018-09-06T05:21:15.033Z,22.2
2018-09-06T05:24:15.490Z,22.3
2018-09-06T05:27:15.123Z,22.5
2018-09-06T05:30:15.679Z,22.6
2018-09-06T05:33:15.230Z,22.8
2018-09-06T05:36:15.868Z,23.0
2018-09-06T05:39:15.501Z,23.1
2018-09-06T05:42:15.153Z,23.2
2018-09-06T05:45:15.669Z,23.4
2018-09-06T05:48:15.255Z,23.5
2018-09-06T05:51:15.646Z,23.5
2018-09-06T05:54:15.195Z,23.7
2018-09-06T05:57:15.591Z,23.8
2018-09-06T06:00:15.219Z,23.8
2018-09-06T06:03:15.124Z,24.0
2018-09-06T06:06:15.642Z,24.2
2018-09-06T06:09:15.186Z,24.3
2018-09-06T06:12:15.869Z,24.4
2018-09-06T06:15:15.579Z,24.5
2018-09-06T06:18:15.230Z,24.6
2018-09-06T06:21:15.735Z,24.7
2018-09-06T06:24:15.268Z,24.7
2018-09-06T06:27:15.964Z,24.7
2018-09-06T06:30:15.600Z,24.7
2018-09-06T06:33:15.202Z,24.7
2018-09-06T06:36:15.792Z,24.7
2018-09-06T06:39:15.324Z,24.7
2018-09-06T06:42:15.969Z,24.7
2018-09-06T06:45:15.764Z,24.7
2018-09-06T06:48:15.368Z,24.7
2018-09-06T06:51:15.838Z,24.6
2018-09-06T06:54:15.467Z,24.7
2018-09-06T06:57:15.067Z,24.5
2018-09-06T07:00:15.468Z,24.7
2018-09-06T07:03:15.037Z,24.9
2018-09-06T07:06:15.524Z,25.0
2018-09-06T07:09:15.911Z,25.2
2018-09-06T07:12:15.587Z,25.4
2018-09-06T07:15:15.098Z,25.6
2018-09-06T07:18:15.748Z,25.6
2018-09-06T07:21:15.701Z,25.8
2018-09-06T07:24:15.563Z,25.9
2018-09-06T07:27:15.149Z,26.0
2018-09-06T07:30:15.808Z,26.2
2018-09-06T07:33:15.505Z,26.2
2018-09-06T07:36:15.068Z,26.6
2018-09-06T07:39:15.643Z,26.5
2018-09-06T07:42:15.255Z,26.8
2018-09-06T07:45:15.793Z,27.0
2018-09-06T07:48:15.305Z,27.3
2018-09-06T07:51:15.835Z,27.6
2018-09-06T07:54:15.542Z,28.3
2018-09-06T07:57:15.012Z,28.7
2018-09-06T08:00:15.500Z,29.2
2018-09-06T08:03:16.018Z,29.4
2018-09-06T08:06:15.782Z,29.8
2018-09-06T08:09:15.277Z,30.3
2018-09-06T08:12:15.824Z,30.9
2018-09-06T08:15:15.543Z,31.3
2018-09-06T08:18:15.164Z,31.4
2018-09-06T08:21:15.803Z,31.7
2018-09-06T08:24:15.419Z,31.4
2018-09-06T08:27:15.202Z,31.6
2018-09-06T08:30:15.860Z,31.9
2018-09-06T08:33:15.475Z,32.0
2018-09-06T08:36:15.116Z,32.0
2018-09-06T08:39:15.653Z,32.3
2018-09-06T08:42:15.276Z,32.7
2018-09-06T08:45:16.102Z,33.9
2018-09-06T08:48:16.051Z,34.8
2018-09-06T08:51:15.758Z,35.0
2018-09-06T08:54:15.808Z,35.5
2018-09-06T08:57:15.952Z,35.9
2018-09-06T09:00:15.997Z,34.9
2018-09-06T09:03:16.191Z,34.8
2018-09-06T09:06:16.099Z,34.5
2018-09-06T09:09:15.258Z,34.8
2018-09-06T09:12:15.219Z,34.5
2018-09-06T09:15:15.153Z,34.1
2018-09-06T09:18:15.925Z,33.8
2018-09-06T09:21:15.874Z,33.2
2018-09-06T09:24:15.888Z,32.7
2018-09-06T09:27:15.660Z,32.2
2018-09-06T09:30:15.606Z,32.0
2018-09-06T09:33:15.489Z,32.1
2018-09-06T09:36:15.336Z,31.3
2018-09-06T09:39:16.049Z,31.7
2018-09-06T09:42:15.797Z,32.5
2018-09-06T09:45:15.603Z,33.4
2018-09-06T09:48:15.318Z,33.2
2018-09-06T09:51:16.084Z,33.2
2018-09-06T09:54:15.806Z,33.1
2018-09-06T09:57:15.600Z,33.7
2018-09-06T10:00:15.341Z,33.9
2018-09-06T10:03:15.836Z,34.0
2018-09-06T10:06:15.670Z,34.1
2018-09-06T10:09:15.867Z,33.9
2018-09-06T10:12:15.300Z,33.9
2018-09-06T10:15:15.201Z,33.9
2018-09-06T10:18:16.038Z,32.8
2018-09-06T10:21:15.958Z,32.9
2018-09-06T10:24:15.924Z,32.4
2018-09-06T10:27:16.021Z,31.7
2018-09-06T10:30:15.983Z,31.4
2018-09-06T10:33:15.395Z,30.8
2018-09-06T10:36:15.169Z,30.4
2018-09-06T10:39:15.725Z,30.8
2018-09-06T10:42:15.572Z,31.2
2018-09-06T10:45:15.266Z,31.5
2018-09-06T10:48:15.837Z,31.5
2018-09-06T10:51:15.564Z,31.9
2018-09-06T10:54:15.250Z,32.2
2018-09-06T10:57:16.256Z,32.6
2018-09-06T11:00:15.606Z,33.6
2018-09-06T11:03:15.743Z,35.0
2018-09-06T11:06:16.286Z,36.1
2018-09-06T11:09:16.233Z,36.9
2018-09-06T11:12:15.682Z,37.4
2018-09-06T11:15:15.989Z,37.2
2018-09-06T11:18:16.299Z,36.6
2018-09-06T11:21:15.594Z,37.4
2018-09-06T11:24:16.075Z,36.3
2018-09-06T11:27:15.566Z,37.1
2018-09-06T11:30:15.868Z,36.4
2018-09-06T11:33:16.078Z,36.2
2018-09-06T11:36:15.349Z,36.2
2018-09-06T11:39:15.827Z,36.5
2018-09-06T11:42:16.156Z,35.7
2018-09-06T11:45:15.679Z,35.8
2018-09-06T11:48:16.219Z,35.7
2018-09-06T11:51:15.560Z,35.6
2018-09-06T11:54:16.107Z,35.6
2018-09-06T11:57:15.428Z,35.0
2018-09-06T12:00:15.686Z,35.0
2018-09-06T12:03:16.027Z,34.9
2018-09-06T12:06:16.435Z,34.2
2018-09-06T12:09:15.729Z,34.1
2018-09-06T12:12:16.176Z,34.2
2018-09-06T12:15:15.608Z,34.0
2018-09-06T12:18:15.923Z,34.1
2018-09-06T12:21:16.126Z,34.1
2018-09-06T12:24:15.334Z,34.1
2018-09-06T12:27:15.497Z,33.9
2018-09-06T12:30:15.663Z,33.7
2018-09-06T12:33:16.115Z,33.1
2018-09-06T12:36:15.719Z,32.5
2018-09-06T12:39:15.682Z,32.5
2018-09-06T12:42:15.628Z,32.5
2018-09-06T12:45:15.249Z,31.8
2018-09-06T12:48:15.908Z,32.1
2018-09-06T12:51:15.678Z,32.1
2018-09-06T12:54:15.397Z,32.1
2018-09-06T12:57:15.075Z,32.3
2018-09-06T13:00:16.006Z,32.2
2018-09-06T13:03:15.898Z,32.2
2018-09-06T13:06:15.647Z,32.2
2018-09-06T13:09:15.226Z,31.9
2018-09-06T13:12:15.755Z,31.8
2018-09-06T13:15:15.306Z,31.7
2018-09-06T13:18:14.992Z,31.3
2018-09-06T13:21:15.806Z,31.3
2018-09-06T13:24:15.419Z,31.1
2018-09-06T13:27:15.976Z,30.9
2018-09-06T13:30:15.670Z,30.8
2018-09-06T13:33:15.109Z,30.4
2018-09-06T13:36:15.624Z,28.9
2018-09-06T13:39:15.443Z,28.4
2018-09-06T13:42:15.861Z,28.1
2018-09-06T13:45:15.538Z,26.2
2018-09-06T13:48:15.088Z,25.0
2018-09-06T13:51:15.529Z,24.0
2018-09-06T13:54:15.095Z,0.0
